sensor_id;sensor_type;location;lat;lon;timestamp;P1;durP1;ratioP1;P2;durP2;ratioP2
25049;SDS011;13046;49.814;9.918;2022-08-21T00:01:05;5.72;;;5.22;;
25049;SDS011;13046;49.814;9.918;2022-08-21T00:03:34;7.32;;;5.30;;
25049;SDS011;13046;49.814;9.918;2022-08-21T00:06:00;7.13;;;5.38;;
25049;SDS011;13046;49.814;9.918;2022-08-21T00:08:26;6.13;;;5.53;;
25049;SDS011;13046;49.814;9.918;2022-08-21T00:10:52;10.10;;;5.60;;
25049;SDS011;13046;49.814;9.918;2022-08-21T00:13:18;9.75;;;5.68;;
25049;SDS011;13046;49.814;9.918;2022-08-21T00:15:45;5.50;;;5.00;;
25049;SDS011;13046;49.814;9.918;2022-08-21T00:18:12;7.25;;;5.32;;
25049;SDS011;13046;49.814;9.918;2022-08-21T00:20:38;8.38;;;6.10;;
25049;SDS011;13046;49.814;9.918;2022-08-21T00:23:05;7.50;;;5.97;;
25049;SDS011;13046;49.814;9.918;2022-08-21T00:25:32;6.15;;;5.38;;
25049;SDS011;13046;49.814;9.918;2022-08-21T00:27:58;7.10;;;5.15;;
25049;SDS011;13046;49.814;9.918;2022-08-21T00:30:24;6.05;;;5.45;;
25049;SDS011;13046;49.814;9.918;2022-08-21T00:32:51;6.63;;;6.03;;
25049;SDS011;13046;49.814;9.918;2022-08-21T00:35:21;6.05;;;5.55;;
25049;SDS011;13046;49.814;9.918;2022-08-21T00:37:50;8.48;;;7.00;;
25049;SDS011;13046;49.814;9.918;2022-08-21T00:40:17;7.15;;;5.25;;
25049;SDS011;13046;49.814;9.918;2022-08-21T00:42:46;5.88;;;5.28;;
25049;SDS011;13046;49.814;9.918;2022-08-21T00:45:12;7.35;;;6.13;;
25049;SDS011;13046;49.814;9.918;2022-08-21T00:47:38;5.20;;;4.78;;
25049;SDS011;13046;49.814;9.918;2022-08-21T00:50:06;5.50;;;5.03;;
25049;SDS011;13046;49.814;9.918;2022-08-21T00:52:33;6.93;;;5.53;;
25049;SDS011;13046;49.814;9.918;2022-08-21T00:55:01;7.57;;;4.90;;
25049;SDS011;13046;49.814;9.918;2022-08-21T00:57:34;6.25;;;5.38;;
25049;SDS011;13046;49.814;9.918;2022-08-21T01:00:03;7.55;;;6.85;;
25049;SDS011;13046;49.814;9.918;2022-08-21T01:02:30;6.13;;;5.53;;
25049;SDS011;13046;49.814;9.918;2022-08-21T01:04:56;7.50;;;5.25;;
25049;SDS011;13046;49.814;9.918;2022-08-21T01:07:22;6.00;;;5.40;;
25049;SDS011;13046;49.814;9.918;2022-08-21T01:09:48;7.47;;;5.90;;
25049;SDS011;13046;49.814;9.918;2022-08-21T01:12:15;6.10;;;5.47;;
25049;SDS011;13046;49.814;9.918;2022-08-21T01:14:41;7.82;;;5.88;;
25049;SDS011;13046;49.814;9.918;2022-08-21T01:17:08;10.68;;;6.07;;
25049;SDS011;13046;49.814;9.918;2022-08-21T01:19:35;6.43;;;5.82;;
25049;SDS011;13046;49.814;9.918;2022-08-21T01:22:01;6.75;;;6.25;;
25049;SDS011;13046;49.814;9.918;2022-08-21T01:24:28;9.02;;;6.40;;
25049;SDS011;13046;49.814;9.918;2022-08-21T01:26:55;6.55;;;5.95;;
25049;SDS011;13046;49.814;9.918;2022-08-21T01:31:47;10.98;;;7.80;;
25049;SDS011;13046;49.814;9.918;2022-08-21T01:34:13;7.35;;;6.75;;
25049;SDS011;13046;49.814;9.918;2022-08-21T01:36:40;11.35;;;8.60;;
25049;SDS011;13046;49.814;9.918;2022-08-21T01:39:07;7.95;;;6.65;;
25049;SDS011;13046;49.814;9.918;2022-08-21T01:41:33;10.05;;;6.75;;
25049;SDS011;13046;49.814;9.918;2022-08-21T01:43:59;8.68;;;6.30;;
25049;SDS011;13046;49.814;9.918;2022-08-21T01:46:25;7.72;;;6.65;;
25049;SDS011;13046;49.814;9.918;2022-08-21T01:48:51;6.75;;;5.53;;
25049;SDS011;13046;49.814;9.918;2022-08-21T01:51:17;5.80;;;5.13;;
25049;SDS011;13046;49.814;9.918;2022-08-21T01:53:43;8.90;;;6.10;;
25049;SDS011;13046;49.814;9.918;2022-08-21T01:56:11;11.05;;;5.80;;
25049;SDS011;13046;49.814;9.918;2022-08-21T01:58:37;12.45;;;6.47;;
25049;SDS011;13046;49.814;9.918;2022-08-21T02:01:03;10.20;;;7.35;;
25049;SDS011;13046;49.814;9.918;2022-08-21T02:03:29;20.38;;;8.98;;
25049;SDS011;13046;49.814;9.918;2022-08-21T02:05:55;10.68;;;8.60;;
25049;SDS011;13046;49.814;9.918;2022-08-21T02:08:21;9.93;;;8.80;;
25049;SDS011;13046;49.814;9.918;2022-08-21T02:10:48;11.68;;;8.45;;
25049;SDS011;13046;49.814;9.918;2022-08-21T02:13:15;13.60;;;8.93;;
25049;SDS011;13046;49.814;9.918;2022-08-21T02:15:41;8.88;;;7.68;;
25049;SDS011;13046;49.814;9.918;2022-08-21T02:18:08;10.13;;;8.38;;
25049;SDS011;13046;49.814;9.918;2022-08-21T02:20:37;11.60;;;8.15;;
25049;SDS011;13046;49.814;9.918;2022-08-21T02:23:04;15.90;;;8.20;;
25049;SDS011;13046;49.814;9.918;2022-08-21T02:25:31;12.52;;;7.70;;
25049;SDS011;13046;49.814;9.918;2022-08-21T02:27:57;10.60;;;8.70;;
25049;SDS011;13046;49.814;9.918;2022-08-21T02:30:25;14.68;;;8.07;;
25049;SDS011;13046;49.814;9.918;2022-08-21T02:32:51;11.38;;;9.13;;
25049;SDS011;13046;49.814;9.918;2022-08-21T02:35:17;14.45;;;9.65;;
25049;SDS011;13046;49.814;9.918;2022-08-21T02:37:45;23.33;;;12.13;;
25049;SDS011;13046;49.814;9.918;2022-08-21T02:40:12;12.38;;;9.40;;
25049;SDS011;13046;49.814;9.918;2022-08-21T02:42:38;21.17;;;10.23;;
25049;SDS011;13046;49.814;9.918;2022-08-21T02:45:05;9.75;;;8.75;;
25049;SDS011;13046;49.814;9.918;2022-08-21T02:47:32;24.40;;;9.90;;
25049;SDS011;13046;49.814;9.918;2022-08-21T02:49:57;14.48;;;9.50;;
25049;SDS011;13046;49.814;9.918;2022-08-21T02:52:23;10.77;;;8.85;;
25049;SDS011;13046;49.814;9.918;2022-08-21T02:54:49;11.98;;;9.50;;
25049;SDS011;13046;49.814;9.918;2022-08-21T02:57:15;10.70;;;8.50;;
25049;SDS011;13046;49.814;9.918;2022-08-21T02:59:41;9.88;;;8.88;;
25049;SDS011;13046;49.814;9.918;2022-08-21T03:02:07;12.55;;;9.90;;
25049;SDS011;13046;49.814;9.918;2022-08-21T03:04:32;17.55;;;9.95;;
25049;SDS011;13046;49.814;9.918;2022-08-21T03:06:58;10.25;;;9.25;;
25049;SDS011;13046;49.814;9.918;2022-08-21T03:09:24;9.45;;;8.60;;
25049;SDS011;13046;49.814;9.918;2022-08-21T03:11:50;11.18;;;8.25;;
25049;SDS011;13046;49.814;9.918;2022-08-21T03:14:16;10.43;;;9.23;;
25049;SDS011;13046;49.814;9.918;2022-08-21T03:16:43;15.20;;;9.73;;
25049;SDS011;13046;49.814;9.918;2022-08-21T03:19:09;13.68;;;9.38;;
25049;SDS011;13046;49.814;9.918;2022-08-21T03:21:34;12.75;;;10.02;;
25049;SDS011;13046;49.814;9.918;2022-08-21T03:24:00;19.88;;;10.75;;
25049;SDS011;13046;49.814;9.918;2022-08-21T03:26:26;15.15;;;9.45;;
25049;SDS011;13046;49.814;9.918;2022-08-21T03:28:51;13.77;;;9.70;;
25049;SDS011;13046;49.814;9.918;2022-08-21T03:31:17;9.68;;;8.68;;
25049;SDS011;13046;49.814;9.918;2022-08-21T03:33:43;9.27;;;8.10;;
25049;SDS011;13046;49.814;9.918;2022-08-21T03:36:09;9.05;;;7.45;;
25049;SDS011;13046;49.814;9.918;2022-08-21T03:38:37;13.35;;;8.15;;
25049;SDS011;13046;49.814;9.918;2022-08-21T03:41:04;10.20;;;8.10;;
25049;SDS011;13046;49.814;9.918;2022-08-21T03:43:31;9.15;;;7.90;;
25049;SDS011;13046;49.814;9.918;2022-08-21T03:45:56;9.88;;;7.78;;
25049;SDS011;13046;49.814;9.918;2022-08-21T03:48:22;9.02;;;7.60;;
25049;SDS011;13046;49.814;9.918;2022-08-21T03:50:48;9.55;;;7.50;;
25049;SDS011;13046;49.814;9.918;2022-08-21T03:53:17;10.63;;;7.28;;
25049;SDS011;13046;49.814;9.918;2022-08-21T03:55:44;7.88;;;7.15;;
25049;SDS011;13046;49.814;9.918;2022-08-21T03:58:11;8.70;;;7.90;;
25049;SDS011;13046;49.814;9.918;2022-08-21T04:00:37;10.27;;;9.10;;
25049;SDS011;13046;49.814;9.918;2022-08-21T04:03:03;8.75;;;7.93;;
25049;SDS011;13046;49.814;9.918;2022-08-21T04:05:28;8.45;;;7.53;;
25049;SDS011;13046;49.814;9.918;2022-08-21T04:07:59;9.25;;;8.35;;
25049;SDS011;13046;49.814;9.918;2022-08-21T04:10:29;9.32;;;8.40;;
25049;SDS011;13046;49.814;9.918;2022-08-21T04:12:56;7.78;;;7.03;;
25049;SDS011;13046;49.814;9.918;2022-08-21T04:15:22;7.95;;;7.15;;
25049;SDS011;13046;49.814;9.918;2022-08-21T04:17:49;8.82;;;7.85;;
25049;SDS011;13046;49.814;9.918;2022-08-21T04:20:15;13.75;;;8.82;;
25049;SDS011;13046;49.814;9.918;2022-08-21T04:22:42;15.35;;;9.60;;
25049;SDS011;13046;49.814;9.918;2022-08-21T04:25:09;15.05;;;8.30;;
25049;SDS011;13046;49.814;9.918;2022-08-21T04:27:35;15.77;;;9.35;;
25049;SDS011;13046;49.814;9.918;2022-08-21T04:30:02;15.38;;;9.60;;
25049;SDS011;13046;49.814;9.918;2022-08-21T04:32:28;12.68;;;10.50;;
25049;SDS011;13046;49.814;9.918;2022-08-21T04:34:59;11.70;;;8.82;;
25049;SDS011;13046;49.814;9.918;2022-08-21T04:37:26;12.35;;;8.75;;
25049;SDS011;13046;49.814;9.918;2022-08-21T04:39:52;12.00;;;9.35;;
25049;SDS011;13046;49.814;9.918;2022-08-21T04:42:17;13.45;;;10.02;;
25049;SDS011;13046;49.814;9.918;2022-08-21T04:44:43;12.30;;;8.88;;
25049;SDS011;13046;49.814;9.918;2022-08-21T04:47:09;11.90;;;9.52;;
25049;SDS011;13046;49.814;9.918;2022-08-21T04:49:34;15.45;;;9.18;;
25049;SDS011;13046;49.814;9.918;2022-08-21T04:52:00;16.00;;;10.23;;
25049;SDS011;13046;49.814;9.918;2022-08-21T04:54:26;10.05;;;9.02;;
25049;SDS011;13046;49.814;9.918;2022-08-21T04:56:54;13.70;;;10.50;;
25049;SDS011;13046;49.814;9.918;2022-08-21T04:59:29;9.77;;;8.77;;
25049;SDS011;13046;49.814;9.918;2022-08-21T05:01:58;13.82;;;9.30;;
25049;SDS011;13046;49.814;9.918;2022-08-21T05:04:27;12.65;;;9.30;;
25049;SDS011;13046;49.814;9.918;2022-08-21T05:06:56;9.98;;;8.35;;
25049;SDS011;13046;49.814;9.918;2022-08-21T05:09:25;11.52;;;8.95;;
25049;SDS011;13046;49.814;9.918;2022-08-21T05:11:51;10.15;;;9.07;;
25049;SDS011;13046;49.814;9.918;2022-08-21T05:14:17;9.95;;;8.95;;
25049;SDS011;13046;49.814;9.918;2022-08-21T05:16:44;10.43;;;8.70;;
25049;SDS011;13046;49.814;9.918;2022-08-21T05:19:10;10.52;;;8.52;;
25049;SDS011;13046;49.814;9.918;2022-08-21T05:21:37;9.02;;;8.13;;
25049;SDS011;13046;49.814;9.918;2022-08-21T05:24:05;8.10;;;7.30;;
25049;SDS011;13046;49.814;9.918;2022-08-21T05:26:31;9.60;;;8.55;;
25049;SDS011;13046;49.814;9.918;2022-08-21T05:28:57;8.55;;;7.75;;
25049;SDS011;13046;49.814;9.918;2022-08-21T05:31:23;8.93;;;8.13;;
25049;SDS011;13046;49.814;9.918;2022-08-21T05:33:49;9.07;;;8.20;;
25049;SDS011;13046;49.814;9.918;2022-08-21T05:36:16;8.27;;;7.47;;
25049;SDS011;13046;49.814;9.918;2022-08-21T05:38:42;9.07;;;8.25;;
25049;SDS011;13046;49.814;9.918;2022-08-21T05:41:08;9.75;;;8.95;;
25049;SDS011;13046;49.814;9.918;2022-08-21T05:43:34;10.63;;;9.63;;
25049;SDS011;13046;49.814;9.918;2022-08-21T05:46:04;9.95;;;9.05;;
25049;SDS011;13046;49.814;9.918;2022-08-21T05:48:31;11.35;;;10.13;;
25049;SDS011;13046;49.814;9.918;2022-08-21T05:50:57;9.65;;;8.80;;
25049;SDS011;13046;49.814;9.918;2022-08-21T05:53:23;9.75;;;8.85;;
25049;SDS011;13046;49.814;9.918;2022-08-21T05:55:50;9.95;;;8.68;;
25049;SDS011;13046;49.814;9.918;2022-08-21T05:58:18;9.75;;;8.73;;
25049;SDS011;13046;49.814;9.918;2022-08-21T06:00:45;10.90;;;9.57;;
25049;SDS011;13046;49.814;9.918;2022-08-21T06:03:17;10.43;;;9.32;;
25049;SDS011;13046;49.814;9.918;2022-08-21T06:05:43;10.70;;;9.80;;
25049;SDS011;13046;49.814;9.918;2022-08-21T06:08:10;11.52;;;10.38;;
25049;SDS011;13046;49.814;9.918;2022-08-21T06:10:37;12.48;;;11.30;;
25049;SDS011;13046;49.814;9.918;2022-08-21T06:13:03;12.23;;;11.13;;
25049;SDS011;13046;49.814;9.918;2022-08-21T06:15:29;13.15;;;11.27;;
25049;SDS011;13046;49.814;9.918;2022-08-21T06:17:55;12.82;;;11.50;;
25049;SDS011;13046;49.814;9.918;2022-08-21T06:20:22;13.40;;;12.07;;
25049;SDS011;13046;49.814;9.918;2022-08-21T06:22:48;15.40;;;14.00;;
25049;SDS011;13046;49.814;9.918;2022-08-21T06:25:14;13.00;;;11.70;;
25049;SDS011;13046;49.814;9.918;2022-08-21T06:27:40;13.52;;;12.18;;
25049;SDS011;13046;49.814;9.918;2022-08-21T06:30:06;15.20;;;12.77;;
25049;SDS011;13046;49.814;9.918;2022-08-21T06:32:32;14.07;;;12.75;;
25049;SDS011;13046;49.814;9.918;2022-08-21T06:34:58;14.20;;;12.80;;
25049;SDS011;13046;49.814;9.918;2022-08-21T06:37:24;14.57;;;11.55;;
25049;SDS011;13046;49.814;9.918;2022-08-21T06:39:50;12.90;;;11.80;;
25049;SDS011;13046;49.814;9.918;2022-08-21T06:42:17;12.68;;;11.30;;
25049;SDS011;13046;49.814;9.918;2022-08-21T06:44:43;12.75;;;11.48;;
25049;SDS011;13046;49.814;9.918;2022-08-21T06:47:09;12.75;;;11.27;;
25049;SDS011;13046;49.814;9.918;2022-08-21T06:49:35;15.05;;;12.70;;
25049;SDS011;13046;49.814;9.918;2022-08-21T06:52:01;12.32;;;11.13;;
25049;SDS011;13046;49.814;9.918;2022-08-21T06:54:28;15.23;;;11.68;;
25049;SDS011;13046;49.814;9.918;2022-08-21T06:56:55;13.48;;;12.25;;
25049;SDS011;13046;49.814;9.918;2022-08-21T06:59:21;14.00;;;12.57;;
25049;SDS011;13046;49.814;9.918;2022-08-21T07:01:47;12.95;;;11.75;;
25049;SDS011;13046;49.814;9.918;2022-08-21T07:04:13;14.20;;;12.77;;
25049;SDS011;13046;49.814;9.918;2022-08-21T07:06:38;12.50;;;11.32;;
25049;SDS011;13046;49.814;9.918;2022-08-21T07:09:04;12.57;;;11.35;;
25049;SDS011;13046;49.814;9.918;2022-08-21T07:11:30;12.25;;;11.07;;
25049;SDS011;13046;49.814;9.918;2022-08-21T07:13:56;11.70;;;10.60;;
25049;SDS011;13046;49.814;9.918;2022-08-21T07:16:22;16.55;;;11.95;;
25049;SDS011;13046;49.814;9.918;2022-08-21T07:18:48;11.60;;;10.48;;
25049;SDS011;13046;49.814;9.918;2022-08-21T07:21:14;10.75;;;9.77;;
25049;SDS011;13046;49.814;9.918;2022-08-21T07:23:42;11.18;;;9.88;;
25049;SDS011;13046;49.814;9.918;2022-08-21T07:26:14;12.30;;;11.18;;
25049;SDS011;13046;49.814;9.918;2022-08-21T07:28:41;11.25;;;10.25;;
25049;SDS011;13046;49.814;9.918;2022-08-21T07:31:08;11.38;;;10.30;;
25049;SDS011;13046;49.814;9.918;2022-08-21T07:33:38;14.02;;;10.15;;
25049;SDS011;13046;49.814;9.918;2022-08-21T07:36:04;11.70;;;9.95;;
25049;SDS011;13046;49.814;9.918;2022-08-21T07:38:31;12.43;;;11.35;;
25049;SDS011;13046;49.814;9.918;2022-08-21T07:40:59;12.13;;;9.77;;
25049;SDS011;13046;49.814;9.918;2022-08-21T07:43:26;10.75;;;9.52;;
25049;SDS011;13046;49.814;9.918;2022-08-21T07:45:53;11.18;;;10.00;;
25049;SDS011;13046;49.814;9.918;2022-08-21T07:48:19;9.90;;;9.00;;
25049;SDS011;13046;49.814;9.918;2022-08-21T07:50:46;10.25;;;9.25;;
25049;SDS011;13046;49.814;9.918;2022-08-21T07:53:12;9.43;;;8.63;;
25049;SDS011;13046;49.814;9.918;2022-08-21T07:55:38;10.38;;;9.35;;
25049;SDS011;13046;49.814;9.918;2022-08-21T07:58:03;10.63;;;9.52;;
25049;SDS011;13046;49.814;9.918;2022-08-21T08:00:29;10.07;;;9.05;;
25049;SDS011;13046;49.814;9.918;2022-08-21T08:02:56;10.45;;;8.85;;
25049;SDS011;13046;49.814;9.918;2022-08-21T08:05:23;10.82;;;9.40;;
25049;SDS011;13046;49.814;9.918;2022-08-21T08:07:51;10.90;;;9.80;;
25049;SDS011;13046;49.814;9.918;2022-08-21T08:10:17;9.52;;;8.50;;
25049;SDS011;13046;49.814;9.918;2022-08-21T08:12:44;9.73;;;8.60;;
25049;SDS011;13046;49.814;9.918;2022-08-21T08:15:20;9.70;;;8.15;;
25049;SDS011;13046;49.814;9.918;2022-08-21T08:17:48;9.13;;;8.20;;
25049;SDS011;13046;49.814;9.918;2022-08-21T08:20:14;9.60;;;8.65;;
25049;SDS011;13046;49.814;9.918;2022-08-21T08:22:41;9.23;;;8.40;;
25049;SDS011;13046;49.814;9.918;2022-08-21T08:25:08;9.93;;;9.05;;
25049;SDS011;13046;49.814;9.918;2022-08-21T08:27:34;10.55;;;9.52;;
25049;SDS011;13046;49.814;9.918;2022-08-21T08:30:00;10.18;;;9.27;;
25049;SDS011;13046;49.814;9.918;2022-08-21T08:32:27;10.15;;;9.07;;
25049;SDS011;13046;49.814;9.918;2022-08-21T08:34:53;9.13;;;8.30;;
25049;SDS011;13046;49.814;9.918;2022-08-21T08:37:19;9.55;;;8.68;;
25049;SDS011;13046;49.814;9.918;2022-08-21T08:39:45;9.13;;;8.30;;
25049;SDS011;13046;49.814;9.918;2022-08-21T08:42:13;9.65;;;8.85;;
25049;SDS011;13046;49.814;9.918;2022-08-21T08:44:41;10.52;;;9.50;;
25049;SDS011;13046;49.814;9.918;2022-08-21T08:47:10;10.32;;;8.82;;
25049;SDS011;13046;49.814;9.918;2022-08-21T08:52:36;8.57;;;7.85;;
25049;SDS011;13046;49.814;9.918;2022-08-21T08:55:14;11.38;;;9.00;;
25049;SDS011;13046;49.814;9.918;2022-08-21T08:57:45;10.25;;;9.35;;
25049;SDS011;13046;49.814;9.918;2022-08-21T09:00:14;8.98;;;8.18;;
25049;SDS011;13046;49.814;9.918;2022-08-21T09:02:43;8.98;;;8.07;;
25049;SDS011;13046;49.814;9.918;2022-08-21T09:05:20;9.52;;;8.52;;
25049;SDS011;13046;49.814;9.918;2022-08-21T09:16:20;7.88;;;7.20;;
25049;SDS011;13046;49.814;9.918;2022-08-21T09:21:46;6.38;;;5.88;;
25049;SDS011;13046;49.814;9.918;2022-08-21T09:27:03;9.93;;;6.38;;
25049;SDS011;13046;49.814;9.918;2022-08-21T09:29:39;7.18;;;6.45;;
25049;SDS011;13046;49.814;9.918;2022-08-21T09:32:20;6.43;;;5.70;;
25049;SDS011;13046;49.814;9.918;2022-08-21T09:34:55;10.15;;;6.60;;
25049;SDS011;13046;49.814;9.918;2022-08-21T09:37:33;6.60;;;5.97;;
25049;SDS011;13046;49.814;9.918;2022-08-21T09:40:20;5.95;;;5.35;;
25049;SDS011;13046;49.814;9.918;2022-08-21T09:45:36;9.18;;;5.22;;
25049;SDS011;13046;49.814;9.918;2022-08-21T09:48:18;9.65;;;6.57;;
25049;SDS011;13046;49.814;9.918;2022-08-21T09:50:46;9.52;;;5.47;;
25049;SDS011;13046;49.814;9.918;2022-08-21T09:53:16;10.35;;;6.85;;
25049;SDS011;13046;49.814;9.918;2022-08-21T09:55:51;7.00;;;5.82;;
25049;SDS011;13046;49.814;9.918;2022-08-21T09:58:59;7.68;;;6.28;;
25049;SDS011;13046;49.814;9.918;2022-08-21T10:01:25;6.20;;;5.63;;
25049;SDS011;13046;49.814;9.918;2022-08-21T10:04:09;6.93;;;4.40;;
25049;SDS011;13046;49.814;9.918;2022-08-21T10:06:36;6.65;;;5.38;;
25049;SDS011;13046;49.814;9.918;2022-08-21T10:09:09;9.38;;;4.78;;
25049;SDS011;13046;49.814;9.918;2022-08-21T10:11:42;10.55;;;4.70;;
25049;SDS011;13046;49.814;9.918;2022-08-21T10:17:17;7.15;;;4.60;;
25049;SDS011;13046;49.814;9.918;2022-08-21T10:20:09;6.88;;;4.35;;
25049;SDS011;13046;49.814;9.918;2022-08-21T10:25:35;8.52;;;4.60;;
25049;SDS011;13046;49.814;9.918;2022-08-21T10:28:17;8.00;;;4.63;;
25049;SDS011;13046;49.814;9.918;2022-08-21T10:31:00;5.75;;;4.32;;
25049;SDS011;13046;49.814;9.918;2022-08-21T10:33:51;4.82;;;4.32;;
25049;SDS011;13046;49.814;9.918;2022-08-21T10:42:36;4.95;;;3.85;;
25049;SDS011;13046;49.814;9.918;2022-08-21T10:45:14;8.15;;;5.10;;
25049;SDS011;13046;49.814;9.918;2022-08-21T10:47:59;7.65;;;4.85;;
25049;SDS011;13046;49.814;9.918;2022-08-21T10:50:34;4.95;;;4.40;;
25049;SDS011;13046;49.814;9.918;2022-08-21T10:58:45;4.43;;;3.97;;
25049;SDS011;13046;49.814;9.918;2022-08-21T11:01:17;4.97;;;4.15;;
25049;SDS011;13046;49.814;9.918;2022-08-21T11:06:42;4.97;;;4.25;;
25049;SDS011;13046;49.814;9.918;2022-08-21T11:09:14;8.88;;;5.78;;
25049;SDS011;13046;49.814;9.918;2022-08-21T11:11:47;5.30;;;4.80;;
25049;SDS011;13046;49.814;9.918;2022-08-21T11:14:38;5.35;;;4.85;;
25049;SDS011;13046;49.814;9.918;2022-08-21T11:17:30;4.88;;;4.28;;
25049;SDS011;13046;49.814;9.918;2022-08-21T11:20:21;4.85;;;4.43;;
25049;SDS011;13046;49.814;9.918;2022-08-21T11:23:21;5.68;;;4.53;;
25049;SDS011;13046;49.814;9.918;2022-08-21T11:25:56;6.50;;;4.07;;
25049;SDS011;13046;49.814;9.918;2022-08-21T11:28:28;5.78;;;4.47;;
25049;SDS011;13046;49.814;9.918;2022-08-21T11:36:34;6.00;;;5.20;;
25049;SDS011;13046;49.814;9.918;2022-08-21T11:39:22;7.85;;;5.07;;
25049;SDS011;13046;49.814;9.918;2022-08-21T11:44:48;7.15;;;4.40;;
25049;SDS011;13046;49.814;9.918;2022-08-21T11:47:25;5.97;;;4.97;;
25049;SDS011;13046;49.814;9.918;2022-08-21T11:52:40;6.82;;;4.30;;
25049;SDS011;13046;49.814;9.918;2022-08-21T11:57:43;4.88;;;4.38;;
25049;SDS011;13046;49.814;9.918;2022-08-21T12:02:58;5.70;;;4.53;;
25049;SDS011;13046;49.814;9.918;2022-08-21T12:05:33;5.25;;;4.68;;
25049;SDS011;13046;49.814;9.918;2022-08-21T12:10:58;6.53;;;5.90;;
25049;SDS011;13046;49.814;9.918;2022-08-21T12:13:31;5.25;;;4.75;;
25049;SDS011;13046;49.814;9.918;2022-08-21T12:16:09;6.30;;;4.50;;
25049;SDS011;13046;49.814;9.918;2022-08-21T12:18:41;5.50;;;4.57;;
25049;SDS011;13046;49.814;9.918;2022-08-21T12:21:17;5.35;;;4.88;;
25049;SDS011;13046;49.814;9.918;2022-08-21T12:24:01;6.70;;;4.90;;
25049;SDS011;13046;49.814;9.918;2022-08-21T12:26:29;4.10;;;3.70;;
25049;SDS011;13046;49.814;9.918;2022-08-21T12:29:04;6.07;;;4.10;;
25049;SDS011;13046;49.814;9.918;2022-08-21T12:34:31;4.72;;;4.20;;
25049;SDS011;13046;49.814;9.918;2022-08-21T12:37:02;5.28;;;4.78;;
25049;SDS011;13046;49.814;9.918;2022-08-21T12:39:32;4.20;;;3.80;;
25049;SDS011;13046;49.814;9.918;2022-08-21T12:42:05;5.63;;;4.00;;
25049;SDS011;13046;49.814;9.918;2022-08-21T12:44:54;5.43;;;4.65;;
25049;SDS011;13046;49.814;9.918;2022-08-21T12:47:33;3.97;;;3.58;;
25049;SDS011;13046;49.814;9.918;2022-08-21T12:50:09;5.32;;;4.03;;
25049;SDS011;13046;49.814;9.918;2022-08-21T12:52:41;3.78;;;3.47;;
25049;SDS011;13046;49.814;9.918;2022-08-21T12:55:11;8.40;;;4.85;;
25049;SDS011;13046;49.814;9.918;2022-08-21T12:57:39;5.80;;;4.13;;
25049;SDS011;13046;49.814;9.918;2022-08-21T13:00:07;5.05;;;4.45;;
25049;SDS011;13046;49.814;9.918;2022-08-21T13:02:42;5.13;;;4.40;;
25049;SDS011;13046;49.814;9.918;2022-08-21T13:05:13;4.00;;;3.70;;
25049;SDS011;13046;49.814;9.918;2022-08-21T13:07:44;8.52;;;4.45;;
25049;SDS011;13046;49.814;9.918;2022-08-21T13:12:45;4.35;;;3.80;;
25049;SDS011;13046;49.814;9.918;2022-08-21T13:15:11;4.03;;;3.63;;
25049;SDS011;13046;49.814;9.918;2022-08-21T13:17:39;5.43;;;4.25;;
25049;SDS011;13046;49.814;9.918;2022-08-21T13:20:09;8.00;;;4.00;;
25049;SDS011;13046;49.814;9.918;2022-08-21T13:22:44;6.13;;;3.63;;
25049;SDS011;13046;49.814;9.918;2022-08-21T13:25:15;3.90;;;3.50;;
25049;SDS011;13046;49.814;9.918;2022-08-21T13:27:43;4.77;;;3.80;;
25049;SDS011;13046;49.814;9.918;2022-08-21T13:30:20;6.05;;;3.45;;
25049;SDS011;13046;49.814;9.918;2022-08-21T13:32:48;3.60;;;3.10;;
25049;SDS011;13046;49.814;9.918;2022-08-21T13:35:18;5.95;;;3.47;;
25049;SDS011;13046;49.814;9.918;2022-08-21T13:37:48;5.15;;;4.15;;
25049;SDS011;13046;49.814;9.918;2022-08-21T13:40:30;4.20;;;3.90;;
25049;SDS011;13046;49.814;9.918;2022-08-21T13:43:03;5.82;;;4.13;;
25049;SDS011;13046;49.814;9.918;2022-08-21T13:45:32;4.50;;;3.95;;
25049;SDS011;13046;49.814;9.918;2022-08-21T13:47:59;4.45;;;4.05;;
25049;SDS011;13046;49.814;9.918;2022-08-21T13:50:26;5.88;;;4.13;;
25049;SDS011;13046;49.814;9.918;2022-08-21T13:52:59;4.35;;;3.42;;
25049;SDS011;13046;49.814;9.918;2022-08-21T13:56:02;7.07;;;3.80;;
25049;SDS011;13046;49.814;9.918;2022-08-21T14:01:19;4.95;;;4.00;;
25049;SDS011;13046;49.814;9.918;2022-08-21T14:03:57;3.60;;;3.30;;
25049;SDS011;13046;49.814;9.918;2022-08-21T14:06:28;4.38;;;3.40;;
25049;SDS011;13046;49.814;9.918;2022-08-21T14:09:01;4.15;;;3.70;;
25049;SDS011;13046;49.814;9.918;2022-08-21T14:11:34;5.55;;;4.10;;
25049;SDS011;13046;49.814;9.918;2022-08-21T14:14:03;3.38;;;3.08;;
25049;SDS011;13046;49.814;9.918;2022-08-21T14:16:41;5.20;;;4.30;;
25049;SDS011;13046;49.814;9.918;2022-08-21T14:19:18;6.22;;;4.13;;
25049;SDS011;13046;49.814;9.918;2022-08-21T14:21:47;5.88;;;3.85;;
25049;SDS011;13046;49.814;9.918;2022-08-21T14:24:24;4.55;;;3.60;;
25049;SDS011;13046;49.814;9.918;2022-08-21T14:26:53;6.03;;;3.92;;
25049;SDS011;13046;49.814;9.918;2022-08-21T14:29:20;5.45;;;4.28;;
25049;SDS011;13046;49.814;9.918;2022-08-21T14:32:34;4.35;;;3.55;;
25049;SDS011;13046;49.814;9.918;2022-08-21T14:34:41;5.03;;;4.53;;
25049;SDS011;13046;49.814;9.918;2022-08-21T14:37:06;5.10;;;3.78;;
25049;SDS011;13046;49.814;9.918;2022-08-21T14:39:32;3.90;;;3.58;;
25049;SDS011;13046;49.814;9.918;2022-08-21T14:41:58;4.18;;;3.58;;
25049;SDS011;13046;49.814;9.918;2022-08-21T14:44:26;5.07;;;3.55;;
25049;SDS011;13046;49.814;9.918;2022-08-21T14:46:52;3.95;;;3.33;;
25049;SDS011;13046;49.814;9.918;2022-08-21T14:49:18;4.18;;;3.78;;
25049;SDS011;13046;49.814;9.918;2022-08-21T14:51:44;8.57;;;4.75;;
25049;SDS011;13046;49.814;9.918;2022-08-21T14:54:10;4.22;;;3.70;;
25049;SDS011;13046;49.814;9.918;2022-08-21T14:56:35;6.68;;;4.65;;
25049;SDS011;13046;49.814;9.918;2022-08-21T14:59:05;4.43;;;3.25;;
25049;SDS011;13046;49.814;9.918;2022-08-21T15:01:44;3.90;;;3.35;;
25049;SDS011;13046;49.814;9.918;2022-08-21T15:04:09;6.55;;;4.63;;
25049;SDS011;13046;49.814;9.918;2022-08-21T15:06:36;4.40;;;3.60;;
25049;SDS011;13046;49.814;9.918;2022-08-21T15:09:01;5.72;;;3.22;;
25049;SDS011;13046;49.814;9.918;2022-08-21T15:11:29;4.35;;;3.80;;
25049;SDS011;13046;49.814;9.918;2022-08-21T15:13:57;6.07;;;4.13;;
25049;SDS011;13046;49.814;9.918;2022-08-21T15:16:27;7.07;;;4.10;;
25049;SDS011;13046;49.814;9.918;2022-08-21T15:18:54;4.07;;;3.53;;
25049;SDS011;13046;49.814;9.918;2022-08-21T15:21:19;4.25;;;3.50;;
25049;SDS011;13046;49.814;9.918;2022-08-21T15:23:45;4.90;;;4.25;;
25049;SDS011;13046;49.814;9.918;2022-08-21T15:26:11;5.00;;;3.97;;
25049;SDS011;13046;49.814;9.918;2022-08-21T15:28:36;4.50;;;4.10;;
25049;SDS011;13046;49.814;9.918;2022-08-21T15:31:03;4.82;;;4.30;;
25049;SDS011;13046;49.814;9.918;2022-08-21T15:33:29;5.43;;;3.67;;
25049;SDS011;13046;49.814;9.918;2022-08-21T15:35:55;7.03;;;3.70;;
25049;SDS011;13046;49.814;9.918;2022-08-21T15:38:21;4.82;;;3.60;;
25049;SDS011;13046;49.814;9.918;2022-08-21T15:40:47;6.00;;;4.75;;
25049;SDS011;13046;49.814;9.918;2022-08-21T15:43:26;5.53;;;5.00;;
25049;SDS011;13046;49.814;9.918;2022-08-21T15:45:54;5.60;;;4.60;;
25049;SDS011;13046;49.814;9.918;2022-08-21T15:48:20;5.68;;;5.18;;
25049;SDS011;13046;49.814;9.918;2022-08-21T15:50:46;6.85;;;4.82;;
25049;SDS011;13046;49.814;9.918;2022-08-21T15:53:12;5.55;;;4.38;;
25049;SDS011;13046;49.814;9.918;2022-08-21T15:55:38;4.97;;;4.30;;
25049;SDS011;13046;49.814;9.918;2022-08-21T15:58:04;4.43;;;4.03;;
25049;SDS011;13046;49.814;9.918;2022-08-21T16:00:30;9.82;;;5.72;;
25049;SDS011;13046;49.814;9.918;2022-08-21T16:02:59;4.75;;;4.22;;